createdAt,value
2019-02-26T00:00:26.191Z,87.41
2019-02-26T00:01:26.187Z,87.54
2019-02-26T00:02:28.339Z,87.63
2019-02-26T00:03:28.512Z,87.66
2019-02-26T00:04:29.266Z,87.43
2019-02-26T00:05:28.609Z,87.94
2019-02-26T00:06:30.089Z,87.77
2019-02-26T00:07:29.957Z,87.53
2019-02-26T00:08:29.621Z,87.13
2019-02-26T00:09:30.517Z,86.90
2019-02-26T00:10:31.602Z,87.04
2019-02-26T00:11:30.870Z,87.10
2019-02-26T00:12:31.487Z,87.26
2019-02-26T00:13:31.933Z,86.90
2019-02-26T00:14:31.844Z,86.44
2019-02-26T00:15:35.591Z,86.88
2019-02-26T00:16:35.205Z,86.99
2019-02-26T00:17:36.187Z,86.84
2019-02-26T00:18:33.267Z,86.55
2019-02-26T00:19:34.573Z,86.45
2019-02-26T00:20:37.163Z,86.67
2019-02-26T00:21:34.642Z,87.01
2019-02-26T00:22:36.788Z,86.69
2019-02-26T00:23:35.660Z,86.65
2019-02-26T00:24:37.772Z,86.75
2019-02-26T00:25:36.437Z,86.14
2019-02-26T00:26:38.540Z,86.34
2019-02-26T00:27:37.160Z,86.15
2019-02-26T00:28:39.096Z,86.60
2019-02-26T00:29:38.191Z,86.46
2019-02-26T00:30:40.311Z,86.74
2019-02-26T00:31:38.815Z,86.47
2019-02-26T00:32:40.550Z,86.57
2019-02-26T00:33:39.866Z,86.70
2019-02-26T00:34:41.221Z,86.60
2019-02-26T00:35:41.622Z,86.71
2019-02-26T00:36:41.498Z,87.40
2019-02-26T00:37:44.075Z,87.20
2019-02-26T00:38:44.334Z,87.30
2019-02-26T00:39:42.968Z,87.25
2019-02-26T00:40:44.436Z,87.35
2019-02-26T00:41:44.775Z,87.23
2019-02-26T00:42:45.137Z,86.64
2019-02-26T00:42:56.562Z,86.37
2019-02-26T00:43:55.361Z,86.37
2019-02-26T00:44:55.919Z,86.35
2019-02-26T00:45:57.946Z,86.57
2019-02-26T00:46:57.520Z,86.69
2019-02-26T00:47:56.438Z,86.71
2019-02-26T00:48:59.060Z,87.09
2019-02-26T00:49:57.060Z,87.26
2019-02-26T00:50:59.472Z,87.67
2019-02-26T00:51:57.892Z,87.63
2019-02-26T00:53:01.172Z,87.48
2019-02-26T00:53:59.865Z,87.62
2019-02-26T00:55:00.444Z,87.40
2019-02-26T00:56:01.036Z,87.62
2019-02-26T00:57:03.044Z,87.53
2019-02-26T00:58:00.991Z,87.82
2019-02-26T00:59:01.220Z,87.56
2019-02-26T01:00:03.473Z,87.28
2019-02-26T01:01:02.297Z,87.62
2019-02-26T01:02:03.650Z,87.93
2019-02-26T01:03:06.096Z,87.91
2019-02-26T01:04:03.377Z,87.44
2019-02-26T01:05:06.398Z,87.49
2019-02-26T01:06:05.912Z,87.60
2019-02-26T01:07:05.477Z,87.95
2019-02-26T01:08:06.458Z,87.80
2019-02-26T01:09:09.349Z,87.87
2019-02-26T01:10:07.206Z,88.46
2019-02-26T01:11:08.914Z,89.08
2019-02-26T01:12:11.347Z,88.85
2019-02-26T01:13:09.114Z,88.98
2019-02-26T01:14:11.082Z,88.80
2019-02-26T01:15:13.525Z,88.43
2019-02-26T01:16:11.450Z,88.40
2019-02-26T01:17:14.836Z,88.10
2019-02-26T01:18:12.978Z,88.61
2019-02-26T01:19:15.296Z,88.55
2019-02-26T01:20:13.969Z,88.52
2019-02-26T01:21:15.704Z,89.04
2019-02-26T01:22:16.593Z,89.22
2019-02-26T01:23:19.464Z,89.32
2019-02-26T01:24:16.691Z,89.07
2019-02-26T01:25:20.533Z,89.34
2019-02-26T01:26:17.647Z,89.62
2019-02-26T01:27:19.009Z,89.43
2019-02-26T01:28:20.847Z,89.69
2019-02-26T01:29:20.883Z,89.55
2019-02-26T01:30:23.693Z,89.38
2019-02-26T01:31:20.689Z,89.45
2019-02-26T01:32:21.051Z,89.89
2019-02-26T01:33:22.173Z,90.21
2019-02-26T01:34:20.637Z,89.90
2019-02-26T01:35:21.883Z,90.42
2019-02-26T01:36:23.721Z,90.45
2019-02-26T01:37:21.430Z,90.64
2019-02-26T01:38:23.779Z,90.82
2019-02-26T01:39:23.392Z,90.77
2019-02-26T01:40:25.678Z,90.83
2019-02-26T01:41:25.097Z,90.79
2019-02-26T01:42:25.367Z,91.54
2019-02-26T01:43:24.858Z,91.79
2019-02-26T01:44:30.153Z,91.93
2019-02-26T01:45:27.348Z,91.37
2019-02-26T01:46:26.532Z,91.09
2019-02-26T01:47:28.509Z,91.10
2019-02-26T01:48:27.723Z,91.21
2019-02-26T01:49:29.280Z,91.11
2019-02-26T01:50:30.888Z,91.25
2019-02-26T01:51:29.505Z,91.18
2019-02-26T01:52:31.120Z,91.47
2019-02-26T01:53:31.505Z,91.30
2019-02-26T01:54:33.509Z,91.13
2019-02-26T01:55:32.138Z,91.09
2019-02-26T01:56:34.054Z,91.13
2019-02-26T01:57:32.896Z,91.34
2019-02-26T01:58:34.438Z,91.42
2019-02-26T01:59:35.098Z,91.37
2019-02-26T01:59:47.422Z,91.62
2019-02-26T02:00:45.889Z,91.62
2019-02-26T02:01:49.680Z,91.61
2019-02-26T02:02:46.555Z,91.44
2019-02-26T02:03:48.800Z,91.48
2019-02-26T02:04:47.245Z,91.67
2019-02-26T02:05:50.271Z,91.59
2019-02-26T02:06:48.016Z,91.54
2019-02-26T02:07:51.813Z,91.10
2019-02-26T02:08:50.539Z,90.62
2019-02-26T02:09:51.297Z,90.47
2019-02-26T02:10:51.636Z,90.23
2019-02-26T02:11:49.956Z,90.64
2019-02-26T02:12:55.233Z,91.07
2019-02-26T02:13:50.751Z,91.08
2019-02-26T02:14:51.994Z,91.17
2019-02-26T02:15:52.317Z,90.94
2019-02-26T02:16:52.778Z,90.65
2019-02-26T02:17:55.437Z,90.43
2019-02-26T02:18:54.831Z,90.09
2019-02-26T02:19:53.052Z,90.64
2019-02-26T02:20:54.336Z,90.55
2019-02-26T02:21:56.052Z,90.43
2019-02-26T02:22:55.869Z,90.82
2019-02-26T02:23:54.565Z,90.70
2019-02-26T02:24:55.820Z,90.53
2019-02-26T02:25:59.717Z,90.83
2019-02-26T02:26:56.269Z,90.43
2019-02-26T02:27:57.449Z,90.77
2019-02-26T02:28:56.333Z,90.87
2019-02-26T02:29:57.878Z,90.75
2019-02-26T02:30:57.195Z,90.77
2019-02-26T02:32:02.097Z,90.97
2019-02-26T02:33:00.094Z,91.24
2019-02-26T02:33:58.551Z,91.43
2019-02-26T02:35:03.457Z,91.98
2019-02-26T02:35:59.266Z,91.78
2019-02-26T02:37:00.603Z,91.78
2019-02-26T02:38:02.798Z,91.57
2019-02-26T02:39:00.321Z,92.29
2019-02-26T02:40:01.613Z,92.13
2019-02-26T02:41:01.989Z,92.01
2019-02-26T02:42:02.983Z,91.53
2019-02-26T02:43:04.402Z,91.25
2019-02-26T02:44:02.941Z,91.85
2019-02-26T02:45:05.232Z,91.79
2019-02-26T02:46:03.817Z,92.00
2019-02-26T02:47:06.790Z,92.00
2019-02-26T02:48:06.230Z,92.31
2019-02-26T02:49:07.387Z,92.55
2019-02-26T02:50:06.604Z,92.48
2019-02-26T02:51:07.995Z,92.22
2019-02-26T02:52:08.567Z,92.29
2019-02-26T02:53:06.512Z,92.11
2019-02-26T02:54:07.975Z,92.30
2019-02-26T02:55:10.542Z,92.40
2019-02-26T02:56:09.982Z,91.99
2019-02-26T02:57:09.928Z,92.06
2019-02-26T02:58:08.038Z,92.46
2019-02-26T02:59:11.278Z,92.85
2019-02-26T03:00:09.013Z,92.80
2019-02-26T03:01:09.362Z,92.65
2019-02-26T03:02:12.716Z,92.49
2019-02-26T03:03:10.464Z,92.32
2019-02-26T03:04:14.803Z,92.34
2019-02-26T03:05:11.673Z,92.99
2019-02-26T03:06:13.055Z,93.03
2019-02-26T15:02:33.378Z,46.88
2019-02-26T15:03:33.968Z,46.72
2019-02-26T15:04:35.413Z,46.59
2019-02-26T15:05:35.896Z,46.08
2019-02-26T15:06:36.785Z,45.92
2019-02-26T15:07:37.362Z,46.35
2019-02-26T15:08:36.326Z,46.45
2019-02-26T15:09:37.095Z,46.28
2019-02-26T15:10:38.837Z,47.06
2019-02-26T15:11:37.859Z,46.40
2019-02-26T15:12:39.869Z,46.39
2019-02-26T15:13:39.681Z,46.03
2019-02-26T15:14:40.708Z,46.17
2019-02-26T15:15:42.077Z,46.57
2019-02-26T15:16:43.598Z,46.48
2019-02-26T15:17:42.962Z,46.48
2019-02-26T15:18:43.654Z,46.15
2019-02-26T15:19:49.613Z,46.93
2019-02-26T15:20:44.791Z,47.13
2019-02-26T15:21:45.502Z,46.89
2019-02-26T15:22:46.607Z,47.01
2019-02-26T15:23:47.490Z,46.46
2019-02-26T15:24:48.538Z,46.78
2019-02-26T15:25:48.663Z,47.39
2019-02-26T15:26:49.283Z,47.21
2019-02-26T15:27:51.008Z,46.58
2019-02-26T15:28:50.511Z,46.73
2019-02-26T15:29:51.602Z,47.28
2019-02-26T15:30:51.563Z,47.50
2019-02-26T15:31:53.549Z,47.13
2019-02-26T15:32:54.118Z,47.32
2019-02-26T15:33:55.914Z,47.14
2019-02-26T15:34:55.664Z,46.79
2019-02-26T15:35:56.228Z,47.03
2019-02-26T15:36:57.908Z,47.98
2019-02-26T15:37:57.139Z,47.62
2019-02-26T15:38:58.416Z,47.38
2019-02-26T15:40:32.238Z,48.11
2019-02-26T15:41:34.137Z,48.09
2019-02-26T15:42:33.345Z,47.66
2019-02-26T15:44:17.359Z,47.47
2019-02-26T15:45:18.973Z,47.50
2019-02-26T15:46:18.497Z,48.13
2019-02-26T15:47:20.218Z,48.26
2019-02-26T15:48:20.612Z,48.58
2019-02-26T15:49:21.421Z,49.58
2019-02-26T15:50:20.802Z,48.65
2019-02-26T15:51:22.228Z,48.63
2019-02-26T15:54:35.396Z,48.67
2019-02-26T15:55:36.815Z,48.34
2019-02-26T15:56:37.145Z,48.84
2019-02-26T15:57:36.906Z,48.43
2019-02-26T15:58:38.244Z,48.73
2019-02-26T15:59:38.940Z,49.44
2019-02-26T16:00:39.371Z,48.81
2019-02-26T16:01:39.500Z,49.14
2019-02-26T16:02:39.915Z,49.75
2019-02-26T16:03:40.275Z,49.54
2019-02-26T16:04:40.466Z,50.34
2019-02-26T16:05:41.179Z,50.75
2019-02-26T16:06:42.943Z,50.83
2019-02-26T16:07:40.780Z,50.75
2019-02-26T16:08:43.324Z,51.03
2019-02-26T16:09:41.715Z,51.03
2019-02-26T16:10:43.456Z,50.82
2019-02-26T16:11:44.280Z,50.15
2019-02-26T16:12:44.310Z,50.13
2019-02-26T16:13:44.619Z,50.66
2019-02-26T16:14:45.296Z,51.43
2019-02-26T16:15:44.845Z,50.94
2019-02-26T16:16:45.667Z,50.82
2019-02-26T16:17:46.226Z,51.40
2019-02-26T16:18:47.247Z,52.07
2019-02-26T16:19:47.691Z,52.18
2019-02-26T16:20:48.987Z,52.01
2019-02-26T16:21:48.651Z,52.58
2019-02-26T16:22:49.386Z,52.37
2019-02-26T16:23:49.655Z,52.68
2019-02-26T16:24:51.191Z,53.28
2019-02-26T16:25:50.366Z,53.33
2019-02-26T16:26:51.202Z,53.41
2019-02-26T16:27:53.776Z,52.84
2019-02-26T16:28:51.130Z,53.25
2019-02-26T16:29:55.879Z,53.13
2019-02-26T16:30:55.625Z,53.29
2019-02-26T16:31:53.293Z,54.19
2019-02-26T16:32:54.446Z,54.18
2019-02-26T16:33:56.159Z,54.00
2019-02-26T16:34:54.505Z,54.17
2019-02-26T16:35:57.847Z,54.29
2019-02-26T16:36:58.725Z,54.68
2019-02-26T16:37:56.936Z,54.29
2019-02-26T16:38:57.409Z,53.45
2019-02-26T16:39:06.487Z,53.03
2019-02-26T16:40:07.954Z,53.02
2019-02-26T16:41:10.219Z,53.71
2019-02-26T16:42:44.343Z,54.77
2019-02-26T16:43:40.760Z,54.76
2019-02-26T16:44:41.745Z,55.00
2019-02-26T16:45:41.876Z,55.36
2019-02-26T16:46:42.127Z,55.61
2019-02-26T16:47:41.768Z,55.89
2019-02-26T16:48:43.513Z,55.88
2019-02-26T16:49:45.203Z,56.23
2019-02-26T16:50:46.106Z,56.72
2019-02-26T16:51:44.266Z,56.76
2019-02-26T16:52:45.601Z,57.43
2019-02-26T16:53:46.171Z,57.90
2019-02-26T16:54:46.325Z,57.72
2019-02-26T16:55:49.124Z,58.32
2019-02-26T16:56:46.528Z,58.62
2019-02-26T16:57:47.546Z,58.45
2019-02-26T16:58:47.972Z,59.05
2019-02-26T16:59:48.736Z,58.63
2019-02-26T17:00:48.867Z,58.80
2019-02-26T17:01:47.752Z,59.24
2019-02-26T17:02:49.307Z,59.10
2019-02-26T17:03:50.813Z,59.83
2019-02-26T17:04:50.243Z,60.13
2019-02-26T17:05:50.627Z,61.18
2019-02-26T17:06:51.542Z,61.56
2019-02-26T17:07:50.635Z,61.42
2019-02-26T17:08:52.016Z,62.06
2019-02-26T17:09:55.441Z,62.28
2019-02-26T17:10:52.075Z,62.34
2019-02-26T17:11:54.036Z,62.85
2019-02-26T17:12:54.642Z,63.16
2019-02-26T17:13:55.471Z,63.33
2019-02-26T17:14:55.846Z,63.20
2019-02-26T17:15:59.279Z,63.39
2019-02-26T17:16:57.523Z,62.91
2019-02-26T17:17:58.124Z,63.26
2019-02-26T17:18:58.441Z,63.24
2019-02-26T17:19:58.812Z,63.73
2019-02-26T17:20:59.329Z,63.96
2019-02-26T17:22:01.812Z,64.09
2019-02-26T17:22:59.497Z,64.56
2019-02-26T17:24:00.305Z,64.26
2019-02-26T17:25:00.411Z,64.38
2019-02-26T17:26:01.985Z,64.20
2019-02-26T17:27:03.473Z,64.22
2019-02-26T17:28:01.882Z,65.03
2019-02-26T17:29:02.557Z,64.93
2019-02-26T17:30:04.184Z,64.99
2019-02-26T17:31:04.537Z,64.84
2019-02-26T17:32:04.864Z,65.04
2019-02-26T17:33:05.229Z,65.42
2019-02-26T17:34:06.834Z,65.63
2019-02-26T17:35:07.514Z,65.58
2019-02-26T17:36:06.321Z,65.88
2019-02-26T17:37:08.518Z,66.40
2019-02-26T17:38:07.540Z,66.65
2019-02-26T17:39:09.391Z,66.85
2019-02-26T17:40:10.034Z,65.92
2019-02-26T17:41:12.281Z,66.48
2019-02-26T17:42:10.577Z,66.41
2019-02-26T17:43:12.340Z,66.70
2019-02-26T17:43:25.082Z,66.96
2019-02-26T17:44:23.649Z,67.00
2019-02-26T17:46:59.497Z,67.52
2019-02-26T17:48:00.729Z,67.41
2019-02-26T17:49:02.934Z,67.64
2019-02-26T17:50:00.309Z,67.84
2019-02-26T17:51:00.361Z,67.57
2019-02-26T17:52:02.086Z,67.27
2019-02-26T17:53:03.061Z,67.56
2019-02-26T17:54:03.984Z,67.67
2019-02-26T17:55:04.593Z,67.66
2019-02-26T17:56:04.938Z,68.12
2019-02-26T17:57:04.858Z,67.74
2019-02-26T17:58:09.883Z,68.01
2019-02-26T17:59:06.027Z,68.35
2019-02-26T18:00:06.548Z,68.24
2019-02-26T18:01:07.088Z,68.18
2019-02-26T18:02:08.012Z,68.16
2019-02-26T18:03:09.265Z,68.58
2019-02-26T18:04:09.038Z,69.18
2019-02-26T18:05:10.724Z,69.70
2019-02-26T18:06:10.771Z,69.80
2019-02-26T18:07:10.384Z,69.62
2019-02-26T18:08:14.371Z,69.90
2019-02-26T18:09:11.897Z,68.72
2019-02-26T18:10:12.918Z,68.60
2019-02-26T18:11:12.329Z,68.65
2019-02-26T18:12:13.769Z,68.46
2019-02-26T18:13:14.381Z,68.60
2019-02-26T18:14:13.609Z,68.54
2019-02-26T18:15:17.638Z,68.89
2019-02-26T18:16:14.853Z,69.21
2019-02-26T18:17:15.151Z,69.71
2019-02-26T18:18:15.582Z,69.75
2019-02-26T18:19:16.439Z,70.14
2019-02-26T18:20:17.028Z,70.38
2019-02-26T18:21:18.652Z,70.70
2019-02-26T18:22:21.595Z,70.63
2019-02-26T18:23:18.570Z,70.96
2019-02-26T18:24:19.581Z,71.06
2019-02-26T18:25:20.233Z,70.75
2019-02-26T18:26:21.741Z,70.89
2019-02-26T18:27:21.963Z,70.67
2019-02-26T18:28:21.206Z,70.28
2019-02-26T18:29:21.164Z,70.07
2019-02-26T18:30:22.676Z,70.04
2019-02-26T18:31:26.433Z,70.02
2019-02-26T18:32:21.971Z,69.74
2019-02-26T18:33:23.331Z,69.72
2019-02-26T18:34:23.872Z,69.81
2019-02-26T18:35:24.408Z,69.87
2019-02-26T18:36:23.711Z,69.74
2019-02-26T18:37:24.377Z,69.57
2019-02-26T18:38:24.697Z,69.49
2019-02-26T18:39:25.032Z,69.49
2019-02-26T18:40:27.937Z,69.58
2019-02-26T18:41:26.171Z,69.49
2019-02-26T18:42:26.390Z,69.47
2019-02-26T18:43:26.920Z,69.70
2019-02-26T18:44:27.572Z,70.01
2019-02-26T18:45:28.944Z,70.07
2019-02-26T18:46:33.356Z,70.52
2019-02-26T18:47:28.571Z,70.76
2019-02-26T18:48:28.991Z,71.24
2019-02-26T18:49:30.165Z,71.35
2019-02-26T18:50:30.748Z,71.90
2019-02-26T18:51:30.741Z,71.97
2019-02-26T18:52:31.276Z,72.33
2019-02-26T18:53:32.609Z,72.36
2019-02-26T18:54:33.367Z,72.87
2019-02-26T18:55:32.697Z,72.42
2019-02-26T18:56:01.780Z,72.56
2019-02-26T18:57:02.339Z,72.54
2019-02-26T18:58:01.028Z,71.74
2019-02-26T18:59:00.701Z,72.46
2019-02-26T19:00:05.631Z,72.47
2019-02-26T19:01:02.503Z,73.32
2019-02-26T19:02:03.990Z,73.65
2019-02-26T19:03:03.571Z,74.20
2019-02-26T19:04:05.158Z,74.55
2019-02-26T19:05:05.804Z,74.59
2019-02-26T19:06:06.223Z,75.06
2019-02-26T19:07:08.752Z,75.07
2019-02-26T19:08:06.530Z,75.14
2019-02-26T19:09:06.254Z,75.53
2019-02-26T19:10:08.029Z,75.28
2019-02-26T19:11:08.775Z,74.91
2019-02-26T19:12:08.519Z,74.85
2019-02-26T19:13:08.974Z,75.09
2019-02-26T19:14:11.315Z,74.35
2019-02-26T19:15:09.334Z,74.15
2019-02-26T19:16:12.965Z,74.23
2019-02-26T19:17:10.700Z,74.45
2019-02-26T19:18:12.012Z,74.38
2019-02-26T19:19:12.583Z,74.62
2019-02-26T19:20:14.948Z,74.52
2019-02-26T19:21:12.672Z,75.09
2019-02-26T19:22:14.629Z,75.10
2019-02-26T19:23:16.900Z,74.98
2019-02-26T19:24:14.831Z,75.09
2019-02-26T19:25:16.174Z,75.07
2019-02-26T19:26:17.023Z,75.16
2019-02-26T19:27:19.415Z,75.40
2019-02-26T19:28:16.272Z,75.69
2019-02-26T19:29:17.489Z,75.75
2019-02-26T19:30:17.968Z,75.64
2019-02-26T19:31:17.113Z,76.21
2019-02-26T19:32:18.068Z,76.11
2019-02-26T19:33:18.812Z,76.31
2019-02-26T19:34:28.791Z,76.74
2019-02-26T19:35:22.222Z,76.98
2019-02-26T19:36:21.086Z,76.62
2019-02-26T19:37:22.456Z,76.71
2019-02-26T19:38:22.119Z,76.41
2019-02-26T19:39:24.055Z,76.79
2019-02-26T19:40:26.839Z,76.82
2019-02-26T19:41:31.554Z,76.90
2019-02-26T19:42:24.769Z,77.09
2019-02-26T19:43:28.700Z,77.13
2019-02-26T19:44:26.244Z,76.97
2019-02-26T19:45:27.521Z,77.29
2019-02-26T19:46:27.920Z,77.43
2019-02-26T19:47:28.300Z,77.65
2019-02-26T19:48:30.423Z,78.28
2019-02-26T19:49:28.864Z,78.29
2019-02-26T19:50:30.096Z,78.22
2019-02-26T19:52:17.910Z,77.98
2019-02-26T19:53:18.318Z,77.72
2019-02-26T19:54:17.932Z,77.69
2019-02-26T19:55:19.477Z,77.60
2019-02-26T19:56:23.361Z,77.29
2019-02-26T19:57:19.485Z,77.00
2019-02-26T19:58:24.220Z,77.61
2019-02-26T19:59:21.165Z,77.37
2019-02-26T20:00:21.117Z,77.39
2019-02-26T20:01:25.453Z,77.63
2019-02-26T20:02:22.090Z,77.62
2019-02-26T20:03:23.784Z,78.03
2019-02-26T20:04:23.843Z,77.89
2019-02-26T20:05:24.361Z,78.18
2019-02-26T20:06:26.825Z,78.19
2019-02-26T20:07:24.319Z,78.21
2019-02-26T20:08:25.079Z,78.25
2019-02-26T20:09:41.649Z,78.79
2019-02-26T20:10:39.171Z,78.72
2019-02-26T20:11:41.991Z,78.52
2019-02-26T20:12:40.611Z,78.58
2019-02-26T20:13:42.191Z,78.59
2019-02-26T20:14:41.135Z,78.59
2019-02-26T20:15:42.042Z,78.66
2019-02-26T20:16:46.216Z,78.70
2019-02-26T20:17:43.624Z,79.17
2019-02-26T20:18:45.104Z,79.49
2019-02-26T20:19:45.652Z,79.72
2019-02-26T20:20:46.616Z,79.74
2019-02-26T20:21:45.887Z,79.44
2019-02-26T20:22:47.458Z,79.42
2019-02-26T20:23:50.926Z,79.28
2019-02-26T20:24:47.449Z,79.50
2019-02-26T20:25:47.997Z,79.62
2019-02-26T20:26:49.975Z,79.57
2019-02-26T20:27:49.084Z,79.70
2019-02-26T20:28:51.079Z,80.34
2019-02-26T20:29:51.764Z,80.50
2019-02-26T20:30:51.379Z,80.48
2019-02-26T20:31:55.397Z,80.83
2019-02-26T20:32:52.802Z,80.54
2019-02-26T20:33:56.310Z,80.74
2019-02-26T20:34:53.525Z,80.66
2019-02-26T20:35:55.500Z,80.74
2019-02-26T20:36:56.060Z,81.03
2019-02-26T20:37:58.656Z,80.76
2019-02-26T20:38:56.157Z,81.10
2019-02-26T20:39:57.715Z,81.15
2019-02-26T20:40:57.983Z,80.98
2019-02-26T20:41:58.424Z,81.16
2019-02-26T20:43:01.352Z,81.57
2019-02-26T20:43:58.789Z,81.60
2019-02-26T20:45:00.823Z,81.78
2019-02-26T20:46:01.610Z,82.31
2019-02-26T20:47:01.912Z,82.54
2019-02-26T20:48:05.289Z,82.12
2019-02-26T20:49:11.879Z,82.23
2019-02-26T20:50:02.801Z,82.29
2019-02-26T20:51:02.884Z,82.32
2019-02-26T20:52:04.824Z,82.51
2019-02-26T20:53:05.897Z,82.59
2019-02-26T20:54:05.669Z,82.33
2019-02-26T20:55:06.325Z,82.67
2019-02-26T20:56:08.059Z,82.37
2019-02-26T20:57:08.728Z,82.40
2019-02-26T20:58:12.409Z,82.38
2019-02-26T20:59:10.779Z,82.59
2019-02-26T21:00:11.740Z,83.05
2019-02-26T21:01:09.332Z,83.00
2019-02-26T21:02:11.114Z,83.30
2019-02-26T21:03:11.666Z,82.98
2019-02-26T21:04:12.414Z,82.91
2019-02-26T21:05:12.998Z,83.20
2019-02-26T21:06:15.608Z,83.27
2019-02-26T21:07:13.696Z,83.11
2019-02-26T21:08:13.656Z,82.98
2019-02-26T21:09:14.406Z,83.30
2019-02-26T21:10:16.148Z,83.56
2019-02-26T21:11:15.333Z,83.36
2019-02-26T21:12:17.240Z,82.83
2019-02-26T21:13:17.614Z,82.74
2019-02-26T21:14:18.528Z,82.37
2019-02-26T21:15:18.274Z,82.37
2019-02-26T21:16:33.144Z,82.70
2019-02-26T21:17:34.321Z,82.66
2019-02-26T21:18:34.073Z,82.50
2019-02-26T21:19:35.735Z,82.45
2019-02-26T21:20:35.102Z,82.34
2019-02-26T21:21:36.336Z,82.51
2019-02-26T21:22:35.430Z,82.81
2019-02-26T21:23:36.950Z,82.95
2019-02-26T21:24:37.450Z,83.15
2019-02-26T21:25:38.183Z,83.36
2019-02-26T21:26:38.799Z,83.25
2019-02-26T21:27:39.281Z,83.43
2019-02-26T21:28:39.807Z,83.34
2019-02-26T21:29:47.719Z,83.16
2019-02-26T21:30:45.612Z,83.94
2019-02-26T21:35:59.736Z,84.10
2019-02-26T21:37:01.505Z,83.80
2019-02-26T21:38:05.742Z,83.62
2019-02-26T21:40:04.392Z,83.67
2019-02-26T21:41:02.917Z,83.21
2019-02-26T21:41:21.052Z,83.52
2019-02-26T21:42:03.718Z,83.45
2019-02-26T21:43:12.807Z,83.36
2019-02-26T21:44:08.785Z,83.81
2019-02-26T21:45:05.006Z,84.12
2019-02-26T21:46:07.005Z,84.02
2019-02-26T21:47:06.283Z,84.16
2019-02-26T21:48:06.906Z,83.99
2019-02-26T21:49:07.560Z,83.93
2019-02-26T21:50:15.567Z,84.30
2019-02-26T21:51:08.512Z,84.21
2019-02-26T21:52:10.185Z,84.06
2019-02-26T21:53:12.722Z,84.14
2019-02-26T21:54:10.731Z,84.23
2019-02-26T21:55:12.170Z,84.27
2019-02-26T21:56:19.791Z,84.41
2019-02-26T21:57:12.356Z,84.54
2019-02-26T21:58:15.063Z,84.17
2019-02-26T21:59:15.447Z,84.19
2019-02-26T22:00:13.580Z,84.42
2019-02-26T22:01:14.495Z,84.76
2019-02-26T22:02:18.572Z,84.35
2019-02-26T22:03:15.251Z,84.70
2019-02-26T22:04:16.939Z,84.90
2019-02-26T22:05:17.510Z,85.09
2019-02-26T22:06:16.990Z,85.10
2019-02-26T22:07:19.064Z,85.05
2019-02-26T22:08:17.996Z,85.19
2019-02-26T22:09:18.517Z,85.29
2019-02-26T22:10:20.337Z,85.44
2019-02-26T22:11:20.584Z,85.33
2019-02-26T22:12:21.879Z,85.22
2019-02-26T22:13:20.277Z,85.33
2019-02-26T22:14:21.780Z,85.36
2019-02-26T22:15:21.259Z,85.55
2019-02-26T22:16:22.904Z,85.44
2019-02-26T22:17:25.219Z,86.06
2019-02-26T22:18:23.308Z,85.97
2019-02-26T22:19:24.904Z,86.07
2019-02-26T22:20:35.890Z,86.45
2019-02-26T22:21:26.990Z,86.41
2019-02-26T22:22:26.269Z,86.35
2019-02-26T22:23:25.718Z,86.46
2019-02-26T22:24:27.473Z,86.27
2019-02-26T22:25:29.341Z,86.74
2019-02-26T22:26:27.665Z,87.14
2019-02-26T22:27:29.603Z,87.37
2019-02-26T22:28:29.897Z,87.26
2019-02-26T22:29:30.471Z,87.23
2019-02-26T22:29:42.128Z,87.18
2019-02-26T22:30:42.938Z,87.13
2019-02-26T22:31:43.712Z,86.78
2019-02-26T22:32:44.943Z,86.59
2019-02-26T22:33:46.375Z,87.07
2019-02-26T22:34:45.520Z,87.57
2019-02-26T22:35:47.493Z,87.30
2019-02-26T22:36:48.201Z,87.39
2019-02-26T22:37:48.867Z,87.14
2019-02-26T22:38:49.836Z,87.13
2019-02-26T22:39:53.611Z,87.16
2019-02-26T22:40:49.717Z,87.15
2019-02-26T22:41:51.295Z,87.01
2019-02-26T22:42:52.035Z,87.74
2019-02-26T22:43:52.594Z,87.86
2019-02-26T22:44:54.835Z,87.96
2019-02-26T22:45:52.139Z,88.20
2019-02-26T22:46:53.026Z,88.18
2019-02-26T22:47:53.309Z,88.19
2019-02-26T22:48:55.034Z,88.04
2019-02-26T22:49:55.638Z,87.94
2019-02-26T22:50:59.550Z,88.17
2019-02-26T22:51:58.476Z,87.98
2019-02-26T22:52:56.635Z,87.93
2019-02-26T22:53:58.311Z,88.28
2019-02-26T22:54:58.820Z,89.13
2019-02-26T22:55:59.289Z,89.58
2019-02-26T22:56:59.969Z,89.77
2019-02-26T22:58:03.451Z,90.20
2019-02-26T22:59:00.499Z,89.74
2019-02-26T23:00:02.384Z,89.73
2019-02-26T23:01:03.272Z,89.74
2019-02-26T23:02:02.804Z,89.53
2019-02-26T23:03:03.527Z,89.41
2019-02-26T23:04:04.215Z,89.08
2019-02-26T23:05:04.932Z,89.21
2019-02-26T23:06:08.062Z,88.69
2019-02-26T23:07:05.397Z,88.65
2019-02-26T23:08:05.013Z,89.22
2019-02-26T23:09:07.927Z,88.69
2019-02-26T23:10:07.494Z,89.27
2019-02-26T23:11:10.270Z,89.70
2019-02-26T23:12:07.290Z,90.29
2019-02-26T23:13:08.696Z,90.37
2019-02-26T23:14:07.892Z,89.54
2019-02-26T23:15:11.989Z,89.98
2019-02-26T23:16:09.513Z,89.94
2019-02-26T23:17:11.371Z,90.34
2019-02-26T23:18:11.955Z,90.02
2019-02-26T23:19:12.666Z,89.85
2019-02-26T23:20:13.435Z,90.15
2019-02-26T23:21:15.736Z,89.81
2019-02-26T23:22:13.553Z,90.26
2019-02-26T23:22:24.091Z,90.53
2019-02-26T23:23:24.647Z,90.34
2019-02-26T23:24:27.916Z,89.64
2019-02-26T23:25:25.424Z,90.10
2019-02-26T23:26:25.978Z,90.18
2019-02-26T23:27:27.455Z,90.42
2019-02-26T23:28:28.040Z,90.89
2019-02-26T23:29:28.633Z,91.42
2019-02-26T23:30:28.091Z,90.51
2019-02-26T23:31:32.729Z,90.20
2019-02-26T23:32:29.225Z,89.68
2019-02-26T23:33:33.124Z,89.83
2019-02-26T23:34:32.683Z,89.67
2019-02-26T23:35:33.114Z,89.58
2019-02-26T23:36:31.548Z,89.70
2019-02-26T23:37:34.521Z,89.89
2019-02-26T23:38:32.737Z,89.73
2019-02-26T23:39:34.193Z,89.53
2019-02-26T23:40:34.751Z,89.62
2019-02-26T23:41:37.496Z,89.16
2019-02-26T23:42:38.558Z,89.90
2019-02-26T23:43:35.673Z,89.33
2019-02-26T23:44:36.486Z,89.21
2019-02-26T23:45:38.233Z,89.44
2019-02-26T23:46:38.578Z,88.87
2019-02-26T23:47:39.069Z,89.81
2019-02-26T23:48:40.989Z,89.77
2019-02-26T23:49:39.352Z,89.89
2019-02-26T23:50:40.807Z,89.91
2019-02-26T23:51:40.826Z,90.41
2019-02-26T23:52:41.221Z,90.81
2019-02-26T23:53:41.653Z,90.42
2019-02-26T23:54:42.151Z,90.17
2019-02-26T23:55:46.438Z,90.51
2019-02-26T23:56:41.886Z,90.40
2019-02-26T23:57:43.403Z,90.59
2019-02-26T23:58:43.413Z,90.99
2019-02-26T23:59:43.095Z,90.87
